sensor_id;sensor_type;location;lat;lon;timestamp;temperature;humidity
14378;DHT22;7272;53.668;9.578;2023-05-02T00:02:44;12.10;99.90
14378;DHT22;7272;53.668;9.578;2023-05-02T00:05:45;12.10;99.90
14378;DHT22;7272;53.668;9.578;2023-05-02T00:08:47;12.00;99.90
14378;DHT22;7272;53.668;9.578;2023-05-02T00:11:49;12.10;99.90
14378;DHT22;7272;53.668;9.578;2023-05-02T00:14:51;12.20;99.90
14378;DHT22;7272;53.668;9.578;2023-05-02T00:17:52;12.10;99.90
14378;DHT22;7272;53.668;9.578;2023-05-02T00:20:54;12.10;99.90
14378;DHT22;7272;53.668;9.578;2023-05-02T00:23:55;11.90;99.90
14378;DHT22;7272;53.668;9.578;2023-05-02T00:26:57;11.90;99.90
14378;DHT22;7272;53.668;9.578;2023-05-02T00:29:59;11.90;99.90
14378;DHT22;7272;53.668;9.578;2023-05-02T00:33:01;11.80;99.90
14378;DHT22;7272;53.668;9.578;2023-05-02T00:36:02;11.90;99.90
14378;DHT22;7272;53.668;9.578;2023-05-02T00:39:03;11.90;99.90
14378;DHT22;7272;53.668;9.578;2023-05-02T00:42:05;11.80;99.90
14378;DHT22;7272;53.668;9.578;2023-05-02T00:45:07;11.70;99.90
14378;DHT22;7272;53.668;9.578;2023-05-02T00:48:09;11.80;99.90
14378;DHT22;7272;53.668;9.578;2023-05-02T00:51:10;11.80;99.90
14378;DHT22;7272;53.668;9.578;2023-05-02T00:54:13;11.80;99.90
14378;DHT22;7272;53.668;9.578;2023-05-02T00:57:15;11.80;99.90
14378;DHT22;7272;53.668;9.578;2023-05-02T01:00:16;11.80;99.90
14378;DHT22;7272;53.668;9.578;2023-05-02T01:03:26;11.70;99.90
14378;DHT22;7272;53.668;9.578;2023-05-02T01:06:35;11.70;99.90
14378;DHT22;7272;53.668;9.578;2023-05-02T01:09:51;11.70;99.90
14378;DHT22;7272;53.668;9.578;2023-05-02T01:13:01;11.70;99.90
14378;DHT22;7272;53.668;9.578;2023-05-02T01:16:05;11.70;99.90
14378;DHT22;7272;53.668;9.578;2023-05-02T01:19:11;11.70;99.90
14378;DHT22;7272;53.668;9.578;2023-05-02T01:22:20;11.70;99.90
14378;DHT22;7272;53.668;9.578;2023-05-02T01:25:28;11.70;99.90
14378;DHT22;7272;53.668;9.578;2023-05-02T01:28:44;11.70;99.90
14378;DHT22;7272;53.668;9.578;2023-05-02T01:31:48;11.60;99.90
14378;DHT22;7272;53.668;9.578;2023-05-02T01:34:51;11.60;99.90
14378;DHT22;7272;53.668;9.578;2023-05-02T01:37:55;11.50;99.90
14378;DHT22;7272;53.668;9.578;2023-05-02T01:40:58;11.50;99.90
14378;DHT22;7272;53.668;9.578;2023-05-02T01:44:05;11.40;99.90
14378;DHT22;7272;53.668;9.578;2023-05-02T01:47:08;11.30;99.90
14378;DHT22;7272;53.668;9.578;2023-05-02T01:50:11;11.20;99.90
14378;DHT22;7272;53.668;9.578;2023-05-02T01:53:13;11.10;99.90
14378;DHT22;7272;53.668;9.578;2023-05-02T01:56:17;11.10;99.90
14378;DHT22;7272;53.668;9.578;2023-05-02T01:59:21;11.00;99.90
14378;DHT22;7272;53.668;9.578;2023-05-02T02:02:24;11.00;99.90
14378;DHT22;7272;53.668;9.578;2023-05-02T02:05:27;10.90;99.90
14378;DHT22;7272;53.668;9.578;2023-05-02T02:08:29;10.90;99.90
14378;DHT22;7272;53.668;9.578;2023-05-02T02:11:35;10.70;99.90
14378;DHT22;7272;53.668;9.578;2023-05-02T02:14:38;10.40;99.90
14378;DHT22;7272;53.668;9.578;2023-05-02T02:17:45;10.20;99.90
14378;DHT22;7272;53.668;9.578;2023-05-02T02:20:49;10.10;99.90
14378;DHT22;7272;53.668;9.578;2023-05-02T02:23:53;10.00;99.90
14378;DHT22;7272;53.668;9.578;2023-05-02T02:26:55;9.90;99.90
14378;DHT22;7272;53.668;9.578;2023-05-02T02:29:58;9.70;99.90
14378;DHT22;7272;53.668;9.578;2023-05-02T02:32:59;9.60;99.90
14378;DHT22;7272;53.668;9.578;2023-05-02T02:36:06;9.50;99.90
14378;DHT22;7272;53.668;9.578;2023-05-02T02:39:15;9.60;99.90
14378;DHT22;7272;53.668;9.578;2023-05-02T02:42:24;9.60;99.90
14378;DHT22;7272;53.668;9.578;2023-05-02T02:45:37;9.60;99.90
14378;DHT22;7272;53.668;9.578;2023-05-02T02:48:45;9.50;99.90
14378;DHT22;7272;53.668;9.578;2023-05-02T02:51:52;9.50;99.90
14378;DHT22;7272;53.668;9.578;2023-05-02T02:54:58;9.60;99.90
14378;DHT22;7272;53.668;9.578;2023-05-02T02:58:06;9.60;99.90
14378;DHT22;7272;53.668;9.578;2023-05-02T03:01:16;9.60;99.90
14378;DHT22;7272;53.668;9.578;2023-05-02T03:04:20;9.50;99.90
14378;DHT22;7272;53.668;9.578;2023-05-02T03:07:26;9.40;99.90
14378;DHT22;7272;53.668;9.578;2023-05-02T03:10:30;9.40;99.90
14378;DHT22;7272;53.668;9.578;2023-05-02T03:13:33;9.40;99.90
14378;DHT22;7272;53.668;9.578;2023-05-02T03:16:37;9.30;99.90
14378;DHT22;7272;53.668;9.578;2023-05-02T03:19:41;9.20;99.90
14378;DHT22;7272;53.668;9.578;2023-05-02T03:22:42;9.10;99.90
14378;DHT22;7272;53.668;9.578;2023-05-02T03:25:43;9.10;99.90
14378;DHT22;7272;53.668;9.578;2023-05-02T03:28:48;9.20;99.90
14378;DHT22;7272;53.668;9.578;2023-05-02T03:31:55;9.10;99.90
14378;DHT22;7272;53.668;9.578;2023-05-02T03:34:57;9.10;99.90
14378;DHT22;7272;53.668;9.578;2023-05-02T03:38:05;9.00;99.90
14378;DHT22;7272;53.668;9.578;2023-05-02T03:41:06;8.90;99.90
14378;DHT22;7272;53.668;9.578;2023-05-02T03:44:08;8.90;99.90
14378;DHT22;7272;53.668;9.578;2023-05-02T03:47:11;8.90;99.90
14378;DHT22;7272;53.668;9.578;2023-05-02T03:50:15;8.90;99.90
14378;DHT22;7272;53.668;9.578;2023-05-02T03:53:19;8.80;99.90
14378;DHT22;7272;53.668;9.578;2023-05-02T03:56:26;8.70;99.90
14378;DHT22;7272;53.668;9.578;2023-05-02T03:59:44;8.70;99.90
14378;DHT22;7272;53.668;9.578;2023-05-02T04:02:56;8.60;99.90
14378;DHT22;7272;53.668;9.578;2023-05-02T04:06:01;8.60;99.90
14378;DHT22;7272;53.668;9.578;2023-05-02T04:09:03;8.60;99.90
14378;DHT22;7272;53.668;9.578;2023-05-02T04:12:14;8.60;99.90
14378;DHT22;7272;53.668;9.578;2023-05-02T04:15:19;8.60;99.90
14378;DHT22;7272;53.668;9.578;2023-05-02T04:18:22;8.70;99.90
14378;DHT22;7272;53.668;9.578;2023-05-02T04:21:24;8.70;99.90
14378;DHT22;7272;53.668;9.578;2023-05-02T04:24:26;8.70;99.90
14378;DHT22;7272;53.668;9.578;2023-05-02T04:27:29;8.60;99.90
14378;DHT22;7272;53.668;9.578;2023-05-02T04:30:31;8.50;99.90
14378;DHT22;7272;53.668;9.578;2023-05-02T04:33:40;8.60;99.90
14378;DHT22;7272;53.668;9.578;2023-05-02T04:36:43;8.60;99.90
14378;DHT22;7272;53.668;9.578;2023-05-02T04:39:48;8.50;99.90
14378;DHT22;7272;53.668;9.578;2023-05-02T04:42:56;8.50;99.90
14378;DHT22;7272;53.668;9.578;2023-05-02T04:46:01;8.40;99.90
14378;DHT22;7272;53.668;9.578;2023-05-02T04:49:07;8.50;99.90
14378;DHT22;7272;53.668;9.578;2023-05-02T04:52:09;8.60;99.90
14378;DHT22;7272;53.668;9.578;2023-05-02T04:55:11;8.60;99.90
14378;DHT22;7272;53.668;9.578;2023-05-02T04:58:13;8.60;99.90
14378;DHT22;7272;53.668;9.578;2023-05-02T05:01:15;8.50;99.90
14378;DHT22;7272;53.668;9.578;2023-05-02T05:04:18;8.50;99.90
14378;DHT22;7272;53.668;9.578;2023-05-02T05:07:20;8.50;99.90
14378;DHT22;7272;53.668;9.578;2023-05-02T05:10:23;8.50;99.90
14378;DHT22;7272;53.668;9.578;2023-05-02T05:13:24;8.50;99.90
14378;DHT22;7272;53.668;9.578;2023-05-02T05:16:27;8.50;99.90
14378;DHT22;7272;53.668;9.578;2023-05-02T05:19:30;8.40;99.90
14378;DHT22;7272;53.668;9.578;2023-05-02T05:22:37;8.40;99.90
14378;DHT22;7272;53.668;9.578;2023-05-02T05:25:39;8.30;99.90
14378;DHT22;7272;53.668;9.578;2023-05-02T05:28:42;8.30;99.90
14378;DHT22;7272;53.668;9.578;2023-05-02T05:31:45;8.40;99.90
14378;DHT22;7272;53.668;9.578;2023-05-02T05:34:51;8.40;99.90
14378;DHT22;7272;53.668;9.578;2023-05-02T05:37:54;8.50;99.90
14378;DHT22;7272;53.668;9.578;2023-05-02T05:40:55;8.50;99.90
14378;DHT22;7272;53.668;9.578;2023-05-02T05:43:56;8.50;99.90
14378;DHT22;7272;53.668;9.578;2023-05-02T05:47:00;8.50;99.90
14378;DHT22;7272;53.668;9.578;2023-05-02T05:50:03;8.50;99.90
14378;DHT22;7272;53.668;9.578;2023-05-02T05:53:05;8.50;99.90
14378;DHT22;7272;53.668;9.578;2023-05-02T05:56:08;8.50;99.90
14378;DHT22;7272;53.668;9.578;2023-05-02T05:59:11;8.60;99.90
14378;DHT22;7272;53.668;9.578;2023-05-02T06:02:12;8.50;99.90
14378;DHT22;7272;53.668;9.578;2023-05-02T06:05:16;8.50;99.90
14378;DHT22;7272;53.668;9.578;2023-05-02T06:08:17;8.50;99.90
14378;DHT22;7272;53.668;9.578;2023-05-02T06:11:19;8.50;99.90
14378;DHT22;7272;53.668;9.578;2023-05-02T06:14:20;8.50;99.90
14378;DHT22;7272;53.668;9.578;2023-05-02T06:17:23;8.50;99.90
14378;DHT22;7272;53.668;9.578;2023-05-02T06:20:26;8.50;99.90
14378;DHT22;7272;53.668;9.578;2023-05-02T06:23:28;8.60;99.90
14378;DHT22;7272;53.668;9.578;2023-05-02T06:26:29;8.60;99.90
14378;DHT22;7272;53.668;9.578;2023-05-02T06:29:30;8.60;99.90
14378;DHT22;7272;53.668;9.578;2023-05-02T06:32:32;8.60;99.90
14378;DHT22;7272;53.668;9.578;2023-05-02T06:35:34;8.50;99.90
14378;DHT22;7272;53.668;9.578;2023-05-02T06:38:35;8.60;99.90
14378;DHT22;7272;53.668;9.578;2023-05-02T06:41:36;8.60;99.90
14378;DHT22;7272;53.668;9.578;2023-05-02T06:44:38;8.70;99.90
14378;DHT22;7272;53.668;9.578;2023-05-02T06:47:39;8.80;99.90
14378;DHT22;7272;53.668;9.578;2023-05-02T06:50:41;8.80;99.90
14378;DHT22;7272;53.668;9.578;2023-05-02T06:53:42;9.00;99.90
14378;DHT22;7272;53.668;9.578;2023-05-02T06:56:44;9.10;99.90
14378;DHT22;7272;53.668;9.578;2023-05-02T06:59:45;9.30;99.90
14378;DHT22;7272;53.668;9.578;2023-05-02T07:02:47;9.20;99.90
14378;DHT22;7272;53.668;9.578;2023-05-02T07:05:49;9.00;99.90
14378;DHT22;7272;53.668;9.578;2023-05-02T07:08:51;8.90;99.90
14378;DHT22;7272;53.668;9.578;2023-05-02T07:11:54;8.90;99.90
14378;DHT22;7272;53.668;9.578;2023-05-02T07:14:55;8.80;99.90
14378;DHT22;7272;53.668;9.578;2023-05-02T07:17:57;8.80;99.90
14378;DHT22;7272;53.668;9.578;2023-05-02T07:20:59;8.80;99.90
14378;DHT22;7272;53.668;9.578;2023-05-02T07:24:01;8.90;99.90
14378;DHT22;7272;53.668;9.578;2023-05-02T07:27:02;8.90;99.90
14378;DHT22;7272;53.668;9.578;2023-05-02T07:30:05;8.80;99.90
14378;DHT22;7272;53.668;9.578;2023-05-02T07:33:07;8.80;99.90
14378;DHT22;7272;53.668;9.578;2023-05-02T07:36:08;9.00;99.90
14378;DHT22;7272;53.668;9.578;2023-05-02T07:39:10;9.20;99.90
14378;DHT22;7272;53.668;9.578;2023-05-02T07:42:11;9.40;99.90
14378;DHT22;7272;53.668;9.578;2023-05-02T07:45:12;9.50;99.90
14378;DHT22;7272;53.668;9.578;2023-05-02T07:48:13;9.70;99.90
14378;DHT22;7272;53.668;9.578;2023-05-02T07:51:15;9.90;99.90
14378;DHT22;7272;53.668;9.578;2023-05-02T07:54:17;10.00;99.90
14378;DHT22;7272;53.668;9.578;2023-05-02T07:57:18;10.00;99.90
14378;DHT22;7272;53.668;9.578;2023-05-02T08:00:20;9.90;99.90
14378;DHT22;7272;53.668;9.578;2023-05-02T08:03:21;10.00;99.90
14378;DHT22;7272;53.668;9.578;2023-05-02T08:06:23;9.90;99.90
14378;DHT22;7272;53.668;9.578;2023-05-02T08:09:25;9.90;99.90
14378;DHT22;7272;53.668;9.578;2023-05-02T08:12:26;10.00;99.90
14378;DHT22;7272;53.668;9.578;2023-05-02T08:15:27;10.10;99.90
14378;DHT22;7272;53.668;9.578;2023-05-02T08:18:30;10.20;99.90
14378;DHT22;7272;53.668;9.578;2023-05-02T08:21:31;10.30;99.90
14378;DHT22;7272;53.668;9.578;2023-05-02T08:24:33;10.60;99.90
14378;DHT22;7272;53.668;9.578;2023-05-02T08:27:34;10.60;99.90
14378;DHT22;7272;53.668;9.578;2023-05-02T08:30:35;10.80;99.90
14378;DHT22;7272;53.668;9.578;2023-05-02T08:33:36;10.90;99.90
14378;DHT22;7272;53.668;9.578;2023-05-02T08:36:38;11.20;99.90
14378;DHT22;7272;53.668;9.578;2023-05-02T08:39:39;11.40;99.90
14378;DHT22;7272;53.668;9.578;2023-05-02T08:42:41;11.40;99.90
14378;DHT22;7272;53.668;9.578;2023-05-02T08:45:44;11.30;99.90
14378;DHT22;7272;53.668;9.578;2023-05-02T08:48:45;11.20;99.90
14378;DHT22;7272;53.668;9.578;2023-05-02T08:51:49;11.30;99.90
14378;DHT22;7272;53.668;9.578;2023-05-02T08:54:52;11.20;99.90
14378;DHT22;7272;53.668;9.578;2023-05-02T08:57:56;11.10;99.90
14378;DHT22;7272;53.668;9.578;2023-05-02T09:01:00;11.20;99.90
14378;DHT22;7272;53.668;9.578;2023-05-02T09:04:02;11.20;99.90
14378;DHT22;7272;53.668;9.578;2023-05-02T09:07:05;11.50;99.90
14378;DHT22;7272;53.668;9.578;2023-05-02T09:10:06;12.20;99.90
14378;DHT22;7272;53.668;9.578;2023-05-02T09:13:28;12.40;99.90
14378;DHT22;7272;53.668;9.578;2023-05-02T09:16:37;12.30;99.90
14378;DHT22;7272;53.668;9.578;2023-05-02T09:19:39;11.90;99.90
14378;DHT22;7272;53.668;9.578;2023-05-02T09:22:47;11.60;99.90
14378;DHT22;7272;53.668;9.578;2023-05-02T09:25:49;11.10;99.90
14378;DHT22;7272;53.668;9.578;2023-05-02T09:28:51;10.90;99.90
14378;DHT22;7272;53.668;9.578;2023-05-02T09:31:53;10.90;99.90
14378;DHT22;7272;53.668;9.578;2023-05-02T09:35:06;11.30;99.90
14378;DHT22;7272;53.668;9.578;2023-05-02T09:38:18;12.00;99.90
14378;DHT22;7272;53.668;9.578;2023-05-02T09:41:20;12.60;99.90
14378;DHT22;7272;53.668;9.578;2023-05-02T09:44:23;12.60;99.90
14378;DHT22;7272;53.668;9.578;2023-05-02T09:47:25;12.50;99.90
14378;DHT22;7272;53.668;9.578;2023-05-02T09:50:34;12.00;99.90
14378;DHT22;7272;53.668;9.578;2023-05-02T09:53:43;11.50;99.90
14378;DHT22;7272;53.668;9.578;2023-05-02T09:56:55;11.10;99.90
14378;DHT22;7272;53.668;9.578;2023-05-02T09:59:57;10.80;99.90
14378;DHT22;7272;53.668;9.578;2023-05-02T10:02:58;11.10;99.90
14378;DHT22;7272;53.668;9.578;2023-05-02T10:05:59;12.00;99.90
14378;DHT22;7272;53.668;9.578;2023-05-02T10:09:02;12.40;99.90
14378;DHT22;7272;53.668;9.578;2023-05-02T10:12:03;12.80;99.90
14378;DHT22;7272;53.668;9.578;2023-05-02T10:15:09;13.30;99.90
14378;DHT22;7272;53.668;9.578;2023-05-02T10:18:13;13.80;99.90
14378;DHT22;7272;53.668;9.578;2023-05-02T10:21:16;13.60;99.90
14378;DHT22;7272;53.668;9.578;2023-05-02T10:24:20;13.00;99.90
14378;DHT22;7272;53.668;9.578;2023-05-02T10:27:21;12.50;99.90
14378;DHT22;7272;53.668;9.578;2023-05-02T10:30:23;12.30;99.90
14378;DHT22;7272;53.668;9.578;2023-05-02T10:33:25;13.20;99.90
14378;DHT22;7272;53.668;9.578;2023-05-02T10:36:28;13.70;99.90
14378;DHT22;7272;53.668;9.578;2023-05-02T10:39:32;13.10;99.90
14378;DHT22;7272;53.668;9.578;2023-05-02T10:42:37;12.20;99.90
14378;DHT22;7272;53.668;9.578;2023-05-02T10:45:40;11.60;99.90
14378;DHT22;7272;53.668;9.578;2023-05-02T10:48:41;11.30;99.90
14378;DHT22;7272;53.668;9.578;2023-05-02T10:51:43;11.10;99.90
14378;DHT22;7272;53.668;9.578;2023-05-02T10:54:44;11.30;99.90
14378;DHT22;7272;53.668;9.578;2023-05-02T10:58:20;11.30;99.90
14378;DHT22;7272;53.668;9.578;2023-05-02T11:01:35;11.20;99.90
14378;DHT22;7272;53.668;9.578;2023-05-02T11:05:00;11.20;99.90
14378;DHT22;7272;53.668;9.578;2023-05-02T11:08:29;11.30;99.90
14378;DHT22;7272;53.668;9.578;2023-05-02T11:11:38;11.60;99.90
14378;DHT22;7272;53.668;9.578;2023-05-02T11:14:44;11.90;99.90
14378;DHT22;7272;53.668;9.578;2023-05-02T11:17:59;12.10;99.90
14378;DHT22;7272;53.668;9.578;2023-05-02T11:21:25;12.20;99.90
14378;DHT22;7272;53.668;9.578;2023-05-02T11:24:38;12.40;99.90
14378;DHT22;7272;53.668;9.578;2023-05-02T11:27:40;12.30;99.90
14378;DHT22;7272;53.668;9.578;2023-05-02T11:30:44;12.00;99.90
14378;DHT22;7272;53.668;9.578;2023-05-02T11:33:54;12.00;99.90
14378;DHT22;7272;53.668;9.578;2023-05-02T11:36:56;12.50;99.90
14378;DHT22;7272;53.668;9.578;2023-05-02T11:40:09;12.20;99.90
14378;DHT22;7272;53.668;9.578;2023-05-02T11:43:13;11.80;99.90
14378;DHT22;7272;53.668;9.578;2023-05-02T11:46:15;12.00;99.90
14378;DHT22;7272;53.668;9.578;2023-05-02T11:49:17;12.70;99.90
14378;DHT22;7272;53.668;9.578;2023-05-02T11:52:19;13.00;99.90
14378;DHT22;7272;53.668;9.578;2023-05-02T11:55:21;13.10;99.90
14378;DHT22;7272;53.668;9.578;2023-05-02T11:58:25;13.30;99.90
14378;DHT22;7272;53.668;9.578;2023-05-02T12:01:29;14.00;99.90
14378;DHT22;7272;53.668;9.578;2023-05-02T12:04:31;14.60;99.90
14378;DHT22;7272;53.668;9.578;2023-05-02T12:07:43;13.90;99.90
14378;DHT22;7272;53.668;9.578;2023-05-02T12:10:45;12.90;99.90
14378;DHT22;7272;53.668;9.578;2023-05-02T12:13:48;12.30;99.90
14378;DHT22;7272;53.668;9.578;2023-05-02T12:16:49;12.10;99.90
14378;DHT22;7272;53.668;9.578;2023-05-02T12:19:51;11.90;99.90
14378;DHT22;7272;53.668;9.578;2023-05-02T12:22:52;11.80;99.90
14378;DHT22;7272;53.668;9.578;2023-05-02T12:25:54;11.60;99.90
14378;DHT22;7272;53.668;9.578;2023-05-02T12:28:56;11.60;99.90
14378;DHT22;7272;53.668;9.578;2023-05-02T12:31:58;11.60;99.90
14378;DHT22;7272;53.668;9.578;2023-05-02T12:35:01;11.50;99.90
14378;DHT22;7272;53.668;9.578;2023-05-02T12:38:11;11.50;99.90
14378;DHT22;7272;53.668;9.578;2023-05-02T12:41:13;11.40;99.90
14378;DHT22;7272;53.668;9.578;2023-05-02T12:44:15;11.40;99.90
14378;DHT22;7272;53.668;9.578;2023-05-02T12:47:16;11.40;99.90
14378;DHT22;7272;53.668;9.578;2023-05-02T12:50:18;11.40;99.90
14378;DHT22;7272;53.668;9.578;2023-05-02T12:53:37;11.70;99.90
14378;DHT22;7272;53.668;9.578;2023-05-02T12:56:39;12.30;99.90
14378;DHT22;7272;53.668;9.578;2023-05-02T12:59:41;12.60;99.90
14378;DHT22;7272;53.668;9.578;2023-05-02T13:02:42;13.00;99.90
14378;DHT22;7272;53.668;9.578;2023-05-02T13:05:44;13.30;99.90
14378;DHT22;7272;53.668;9.578;2023-05-02T13:08:45;13.60;99.90
14378;DHT22;7272;53.668;9.578;2023-05-02T13:11:46;13.90;99.90
14378;DHT22;7272;53.668;9.578;2023-05-02T13:14:49;13.90;99.90
14378;DHT22;7272;53.668;9.578;2023-05-02T13:17:50;13.70;99.90
14378;DHT22;7272;53.668;9.578;2023-05-02T13:20:52;13.40;99.90
14378;DHT22;7272;53.668;9.578;2023-05-02T13:23:53;13.30;99.90
14378;DHT22;7272;53.668;9.578;2023-05-02T13:26:55;13.10;99.90
14378;DHT22;7272;53.668;9.578;2023-05-02T13:29:56;12.40;99.90
14378;DHT22;7272;53.668;9.578;2023-05-02T13:32:58;12.10;99.90
14378;DHT22;7272;53.668;9.578;2023-05-02T13:35:59;11.80;99.90
14378;DHT22;7272;53.668;9.578;2023-05-02T13:39:00;11.70;99.90
14378;DHT22;7272;53.668;9.578;2023-05-02T13:42:01;11.70;99.90
14378;DHT22;7272;53.668;9.578;2023-05-02T13:45:05;11.60;99.90
14378;DHT22;7272;53.668;9.578;2023-05-02T13:48:07;11.50;99.90
14378;DHT22;7272;53.668;9.578;2023-05-02T13:51:08;11.50;99.90
14378;DHT22;7272;53.668;9.578;2023-05-02T13:54:10;11.50;99.90
14378;DHT22;7272;53.668;9.578;2023-05-02T13:57:11;12.00;99.90
14378;DHT22;7272;53.668;9.578;2023-05-02T14:00:13;12.10;99.90
14378;DHT22;7272;53.668;9.578;2023-05-02T14:03:16;11.90;99.90
14378;DHT22;7272;53.668;9.578;2023-05-02T14:06:17;11.70;99.90
14378;DHT22;7272;53.668;9.578;2023-05-02T14:09:21;11.90;99.90
14378;DHT22;7272;53.668;9.578;2023-05-02T14:12:22;12.40;99.90
14378;DHT22;7272;53.668;9.578;2023-05-02T14:15:24;12.70;99.90
14378;DHT22;7272;53.668;9.578;2023-05-02T14:18:26;13.00;99.90
14378;DHT22;7272;53.668;9.578;2023-05-02T14:21:27;12.80;99.90
14378;DHT22;7272;53.668;9.578;2023-05-02T14:24:29;12.30;99.90
14378;DHT22;7272;53.668;9.578;2023-05-02T14:27:30;12.00;99.90
14378;DHT22;7272;53.668;9.578;2023-05-02T14:30:32;11.80;99.90
14378;DHT22;7272;53.668;9.578;2023-05-02T14:33:33;11.80;99.90
14378;DHT22;7272;53.668;9.578;2023-05-02T14:36:34;11.70;99.90
14378;DHT22;7272;53.668;9.578;2023-05-02T14:39:35;11.60;99.90
14378;DHT22;7272;53.668;9.578;2023-05-02T14:42:37;11.60;99.90
14378;DHT22;7272;53.668;9.578;2023-05-02T14:45:38;11.40;99.90
14378;DHT22;7272;53.668;9.578;2023-05-02T14:48:40;11.30;99.90
14378;DHT22;7272;53.668;9.578;2023-05-02T14:51:41;11.20;99.90
14378;DHT22;7272;53.668;9.578;2023-05-02T14:54:46;11.10;99.90
14378;DHT22;7272;53.668;9.578;2023-05-02T14:57:47;11.00;99.90
14378;DHT22;7272;53.668;9.578;2023-05-02T15:00:49;11.00;99.90
14378;DHT22;7272;53.668;9.578;2023-05-02T15:03:51;11.10;99.90
14378;DHT22;7272;53.668;9.578;2023-05-02T15:06:52;11.20;99.90
14378;DHT22;7272;53.668;9.578;2023-05-02T15:09:53;11.10;99.90
14378;DHT22;7272;53.668;9.578;2023-05-02T15:12:55;10.90;99.90
14378;DHT22;7272;53.668;9.578;2023-05-02T15:15:57;10.80;99.90
14378;DHT22;7272;53.668;9.578;2023-05-02T15:18:58;10.80;99.90
14378;DHT22;7272;53.668;9.578;2023-05-02T15:21:59;10.80;99.90
14378;DHT22;7272;53.668;9.578;2023-05-02T15:25:01;10.90;99.90
14378;DHT22;7272;53.668;9.578;2023-05-02T15:28:02;11.00;99.90
14378;DHT22;7272;53.668;9.578;2023-05-02T15:31:04;11.00;99.90
14378;DHT22;7272;53.668;9.578;2023-05-02T15:34:05;11.00;99.90
14378;DHT22;7272;53.668;9.578;2023-05-02T15:37:06;11.20;99.90
14378;DHT22;7272;53.668;9.578;2023-05-02T15:40:08;11.20;99.90
14378;DHT22;7272;53.668;9.578;2023-05-02T15:43:10;11.20;99.90
14378;DHT22;7272;53.668;9.578;2023-05-02T15:46:12;11.30;99.90
14378;DHT22;7272;53.668;9.578;2023-05-02T15:49:13;11.40;99.90
14378;DHT22;7272;53.668;9.578;2023-05-02T15:52:15;11.40;99.90
14378;DHT22;7272;53.668;9.578;2023-05-02T15:55:16;11.40;99.90
14378;DHT22;7272;53.668;9.578;2023-05-02T15:58:18;11.30;99.90
14378;DHT22;7272;53.668;9.578;2023-05-02T16:01:19;11.30;99.90
14378;DHT22;7272;53.668;9.578;2023-05-02T16:04:23;11.30;99.90
14378;DHT22;7272;53.668;9.578;2023-05-02T16:07:24;11.20;99.90
14378;DHT22;7272;53.668;9.578;2023-05-02T16:10:27;10.90;99.90
14378;DHT22;7272;53.668;9.578;2023-05-02T16:13:28;10.90;99.90
14378;DHT22;7272;53.668;9.578;2023-05-02T16:16:31;11.00;99.90
14378;DHT22;7272;53.668;9.578;2023-05-02T16:19:33;11.20;99.90
14378;DHT22;7272;53.668;9.578;2023-05-02T16:22:34;11.40;99.90
14378;DHT22;7272;53.668;9.578;2023-05-02T16:25:36;11.60;99.90
14378;DHT22;7272;53.668;9.578;2023-05-02T16:28:37;11.50;99.90
14378;DHT22;7272;53.668;9.578;2023-05-02T16:31:39;11.40;99.90
14378;DHT22;7272;53.668;9.578;2023-05-02T16:34:41;11.20;99.90
14378;DHT22;7272;53.668;9.578;2023-05-02T16:37:42;11.00;99.90
14378;DHT22;7272;53.668;9.578;2023-05-02T16:40:43;10.90;99.90
14378;DHT22;7272;53.668;9.578;2023-05-02T16:43:44;10.70;99.90
14378;DHT22;7272;53.668;9.578;2023-05-02T16:46:47;10.50;99.90
14378;DHT22;7272;53.668;9.578;2023-05-02T16:49:52;10.30;99.90
14378;DHT22;7272;53.668;9.578;2023-05-02T16:52:53;10.20;99.90
14378;DHT22;7272;53.668;9.578;2023-05-02T16:55:54;10.20;99.90
14378;DHT22;7272;53.668;9.578;2023-05-02T16:58:56;10.20;99.90
14378;DHT22;7272;53.668;9.578;2023-05-02T17:01:58;10.20;99.90
14378;DHT22;7272;53.668;9.578;2023-05-02T17:04:59;10.20;99.90
14378;DHT22;7272;53.668;9.578;2023-05-02T17:08:00;10.20;99.90
14378;DHT22;7272;53.668;9.578;2023-05-02T17:11:02;10.20;99.90
14378;DHT22;7272;53.668;9.578;2023-05-02T17:14:03;10.20;99.90
14378;DHT22;7272;53.668;9.578;2023-05-02T17:17:05;10.20;99.90
14378;DHT22;7272;53.668;9.578;2023-05-02T17:20:06;10.30;99.90
14378;DHT22;7272;53.668;9.578;2023-05-02T17:23:09;10.30;99.90
14378;DHT22;7272;53.668;9.578;2023-05-02T17:26:10;10.30;99.90
14378;DHT22;7272;53.668;9.578;2023-05-02T17:29:15;10.20;99.90
14378;DHT22;7272;53.668;9.578;2023-05-02T17:32:16;10.40;99.90
14378;DHT22;7272;53.668;9.578;2023-05-02T17:35:18;10.60;99.90
14378;DHT22;7272;53.668;9.578;2023-05-02T17:38:19;10.70;99.90
14378;DHT22;7272;53.668;9.578;2023-05-02T17:41:20;10.60;99.90
14378;DHT22;7272;53.668;9.578;2023-05-02T17:44:21;10.30;99.90
14378;DHT22;7272;53.668;9.578;2023-05-02T17:47:23;10.20;99.90
14378;DHT22;7272;53.668;9.578;2023-05-02T17:50:25;10.10;99.90
14378;DHT22;7272;53.668;9.578;2023-05-02T17:53:26;10.00;99.90
14378;DHT22;7272;53.668;9.578;2023-05-02T17:56:27;9.80;99.90
14378;DHT22;7272;53.668;9.578;2023-05-02T17:59:29;9.80;99.90
14378;DHT22;7272;53.668;9.578;2023-05-02T18:02:31;9.80;99.90
14378;DHT22;7272;53.668;9.578;2023-05-02T18:05:36;9.70;99.90
14378;DHT22;7272;53.668;9.578;2023-05-02T18:08:38;9.80;99.90
14378;DHT22;7272;53.668;9.578;2023-05-02T18:11:39;9.80;99.90
14378;DHT22;7272;53.668;9.578;2023-05-02T18:14:40;9.70;99.90
14378;DHT22;7272;53.668;9.578;2023-05-02T18:17:42;9.60;99.90
14378;DHT22;7272;53.668;9.578;2023-05-02T18:20:44;9.40;99.90
14378;DHT22;7272;53.668;9.578;2023-05-02T18:23:45;9.30;99.90
14378;DHT22;7272;53.668;9.578;2023-05-02T18:26:47;9.30;99.90
14378;DHT22;7272;53.668;9.578;2023-05-02T18:29:48;9.30;99.90
14378;DHT22;7272;53.668;9.578;2023-05-02T18:32:50;9.30;99.90
14378;DHT22;7272;53.668;9.578;2023-05-02T18:35:51;9.30;99.90
14378;DHT22;7272;53.668;9.578;2023-05-02T18:38:52;9.30;99.90
14378;DHT22;7272;53.668;9.578;2023-05-02T18:41:54;9.40;99.90
14378;DHT22;7272;53.668;9.578;2023-05-02T18:44:55;9.30;99.90
14378;DHT22;7272;53.668;9.578;2023-05-02T18:47:57;9.20;99.90
14378;DHT22;7272;53.668;9.578;2023-05-02T18:50:59;9.10;99.90
14378;DHT22;7272;53.668;9.578;2023-05-02T18:54:00;9.00;99.90
14378;DHT22;7272;53.668;9.578;2023-05-02T18:57:02;8.90;99.90
14378;DHT22;7272;53.668;9.578;2023-05-02T19:00:04;8.80;99.90
14378;DHT22;7272;53.668;9.578;2023-05-02T19:03:06;8.80;99.90
14378;DHT22;7272;53.668;9.578;2023-05-02T19:06:08;8.70;99.90
14378;DHT22;7272;53.668;9.578;2023-05-02T19:09:09;8.60;99.90
14378;DHT22;7272;53.668;9.578;2023-05-02T19:12:12;8.60;99.90
14378;DHT22;7272;53.668;9.578;2023-05-02T19:15:14;8.60;99.90
14378;DHT22;7272;53.668;9.578;2023-05-02T19:18:15;8.50;99.90
14378;DHT22;7272;53.668;9.578;2023-05-02T19:21:17;8.50;99.90
14378;DHT22;7272;53.668;9.578;2023-05-02T19:24:18;8.40;99.90
14378;DHT22;7272;53.668;9.578;2023-05-02T19:27:20;8.40;99.90
14378;DHT22;7272;53.668;9.578;2023-05-02T19:30:22;8.30;99.90
14378;DHT22;7272;53.668;9.578;2023-05-02T19:33:23;8.30;99.90
14378;DHT22;7272;53.668;9.578;2023-05-02T19:36:24;8.40;99.90
14378;DHT22;7272;53.668;9.578;2023-05-02T19:39:27;8.50;99.90
14378;DHT22;7272;53.668;9.578;2023-05-02T19:42:28;8.40;99.90
14378;DHT22;7272;53.668;9.578;2023-05-02T19:45:29;8.50;99.90